Terminal Aerodrome Forecast
Issued by NWS

Home | Current Version | Previous Version | Text Only | Print | Product List | Glossary On
Versions: 1 2 3 4 5 6 7 8 9 10 11 12 13 14 15 16 17 18 19 20 21 22 23 24 25 26 27 28 29 30 31 32 33
649
FTUS45 KLKN 102356
TAFEKO
TAF
KEKO 102356Z 1100/1124 VRB06KT P6SM SCT200
     FM111430 VRB04KT 1SM BR OVC002
     FM111600 VRB03KT 3SM BR OVC004
     FM111730 VRB06KT P6SM VCFG FEW005 FEW120 SCT150=

USA.gov is the U.S. government's official web portal to all federal, state and local government web resources and services.